createdAt,value
2022-12-29T00:01:07.492Z,99980.59
2022-12-29T00:03:34.211Z,99982.28
2022-12-29T00:06:01.904Z,99973.31
2022-12-29T00:08:40.982Z,99959.81
2022-12-29T00:11:16.563Z,99958.97
2022-12-29T00:14:01.804Z,99967.06
2022-12-29T00:16:29.162Z,99951.88
2022-12-29T00:18:55.811Z,99958.44
2022-12-29T00:21:43.112Z,99947.94
2022-12-29T00:24:28.421Z,99960.75
2022-12-29T00:27:32.193Z,99951.09
2022-12-29T00:30:18.548Z,99954.50
2022-12-29T00:33:03.696Z,99955.66
2022-12-29T00:35:34.985Z,99945.84
2022-12-29T00:38:25.092Z,99938.03
2022-12-29T00:41:10.203Z,99919.44
2022-12-29T00:43:55.296Z,99931.25
2022-12-29T00:46:21.986Z,99930.72
2022-12-29T00:49:07.782Z,99925.63
2022-12-29T00:51:34.347Z,99923.06
2022-12-29T00:54:00.873Z,99921.53
2022-12-29T00:56:27.470Z,99921.53
2022-12-29T00:58:54.016Z,99912.75
2022-12-29T01:01:20.556Z,99915.28
2022-12-29T01:03:47.158Z,99912.75
2022-12-29T01:06:13.875Z,99909.03
2022-12-29T01:08:40.764Z,99908.03
2022-12-29T01:11:10.777Z,99901.47
2022-12-29T01:13:42.182Z,99889.66
2022-12-29T01:16:08.929Z,99912.13
2022-12-29T01:18:35.485Z,99904.69
2022-12-29T01:21:04.338Z,99899.16
2022-12-29T01:23:32.509Z,99895.44
2022-12-29T01:26:10.308Z,99882.78
2022-12-29T01:28:36.848Z,99885.16
2022-12-29T01:31:03.325Z,99892.44
2022-12-29T01:33:29.912Z,99894.13
2022-12-29T01:36:00.472Z,99888.56
2022-12-29T01:38:27.083Z,99894.97
2022-12-29T01:40:53.617Z,99880.63
2022-12-29T01:43:20.492Z,99879.63
2022-12-29T01:45:52.435Z,99869.81
2022-12-29T01:48:20.742Z,99866.94
2022-12-29T01:50:52.132Z,99881.31
2022-12-29T01:53:24.005Z,99865.09
2022-12-29T01:55:55.300Z,99862.56
2022-12-29T01:58:25.472Z,99870.50
2022-12-29T02:00:52.420Z,99865.09
2022-12-29T02:03:22.004Z,99860.69
2022-12-29T02:05:58.829Z,99869.66
2022-12-29T02:08:28.798Z,99879.47
2022-12-29T02:10:57.665Z,99875.75
2022-12-29T02:13:26.218Z,99869.38
2022-12-29T02:15:52.688Z,99870.06
2022-12-29T02:18:32.159Z,99867.53
2022-12-29T02:21:17.530Z,99876.16
2022-12-29T02:24:17.545Z,99875.16
2022-12-29T02:27:00.947Z,99862.34
2022-12-29T02:29:43.911Z,99865.03
2022-12-29T02:32:22.618Z,99866.88
2022-12-29T02:35:02.162Z,99867.72
2022-12-29T02:38:06.276Z,99872.97
2022-12-29T02:40:44.281Z,99867.41
2022-12-29T02:43:44.130Z,99856.63
2022-12-29T02:46:39.079Z,99858.31
2022-12-29T02:49:15.018Z,99864.56
2022-12-29T02:52:21.066Z,99863.72
2022-12-29T02:54:50.052Z,99860.84
2022-12-29T02:57:31.222Z,99845.47
2022-12-29T03:00:08.562Z,99852.75
2022-12-29T03:02:49.943Z,99850.88
2022-12-29T03:05:22.431Z,99857.47
2022-12-29T03:08:16.701Z,99841.41
2022-12-29T03:10:59.018Z,99835.00
2022-12-29T03:14:09.208Z,99831.28
2022-12-29T03:17:05.627Z,99845.81
2022-12-29T03:19:37.351Z,99836.00
2022-12-29T03:22:27.633Z,99836.00
2022-12-29T03:25:30.997Z,99851.06
2022-12-29T03:28:12.373Z,99844.81
2022-12-29T03:30:46.014Z,99843.94
2022-12-29T03:33:18.079Z,99838.53
2022-12-29T03:35:48.878Z,99834.16
2022-12-29T03:38:22.188Z,99847.50
2022-12-29T03:40:53.666Z,99842.09
2022-12-29T03:43:20.933Z,99831.28
2022-12-29T03:45:49.206Z,99823.34
2022-12-29T03:48:15.870Z,99824.03
2022-12-29T03:50:44.714Z,99824.19
2022-12-29T03:53:11.298Z,99833.31
2022-12-29T03:55:39.325Z,99826.19
2022-12-29T03:58:06.488Z,99847.97
2022-12-29T04:00:48.432Z,99834.47
2022-12-29T04:03:14.994Z,99830.91
2022-12-29T04:05:41.827Z,99823.97
2022-12-29T04:08:08.708Z,99828.38
2022-12-29T04:10:35.348Z,99833.94
2022-12-29T04:13:04.587Z,99828.53
2022-12-29T04:15:31.619Z,99844.75
2022-12-29T04:17:59.732Z,99849.31
2022-12-29T04:20:45.454Z,99857.41
2022-12-29T04:23:12.733Z,99853.84
2022-12-29T04:25:39.343Z,99861.28
2022-12-29T04:28:09.041Z,99839.94
2022-12-29T04:30:41.796Z,99841.09
2022-12-29T04:33:15.680Z,99842.28
2022-12-29T04:35:44.611Z,99850.69
2022-12-29T04:38:11.901Z,99846.44
2022-12-29T04:40:43.212Z,99848.63
2022-12-29T04:43:11.556Z,99862.75
2022-12-29T04:45:59.912Z,99863.75
2022-12-29T04:48:36.383Z,99866.06
2022-12-29T04:51:21.217Z,99852.84
2022-12-29T04:53:47.826Z,99855.84
2022-12-29T04:56:14.487Z,99865.28
2022-12-29T04:58:41.143Z,99867.28
2022-12-29T05:01:07.798Z,99857.47
2022-12-29T05:03:34.853Z,99855.09
2022-12-29T05:06:01.556Z,99867.19
2022-12-29T05:08:28.749Z,99874.91
2022-12-29T05:10:58.652Z,99876.06
2022-12-29T05:13:25.379Z,99886.16
2022-12-29T05:15:53.908Z,99879.22
2022-12-29T05:18:22.681Z,99889.31
2022-12-29T05:20:49.794Z,99894.03
2022-12-29T05:23:17.982Z,99896.88
2022-12-29T05:25:49.815Z,99901.59
2022-12-29T05:28:20.481Z,99894.78
2022-12-29T05:30:56.168Z,99910.44
2022-12-29T05:33:22.749Z,99906.50
2022-12-29T05:35:50.826Z,99920.13
2022-12-29T05:38:18.607Z,99910.50
2022-12-29T05:40:45.960Z,99935.91
2022-12-29T05:43:41.743Z,99934.06
2022-12-29T05:46:28.539Z,99943.00
2022-12-29T05:49:07.527Z,99941.63
2022-12-29T05:52:12.466Z,99934.38
2022-12-29T05:54:39.111Z,99939.63
2022-12-29T05:57:11.864Z,99937.78
2022-12-29T05:59:39.750Z,99936.06
2022-12-29T06:02:06.582Z,99949.41
2022-12-29T06:04:33.953Z,99935.78
2022-12-29T06:07:00.621Z,99951.09
2022-12-29T06:09:41.891Z,99957.19
2022-12-29T06:12:09.437Z,99955.19
2022-12-29T06:14:37.187Z,99943.25
2022-12-29T06:17:04.884Z,99946.66
2022-12-29T06:19:33.610Z,99944.50
2022-12-29T06:22:00.135Z,99945.22
2022-12-29T06:24:28.373Z,99948.75
2022-12-29T06:26:55.161Z,99962.09
2022-12-29T06:29:21.896Z,99950.16
2022-12-29T06:31:49.737Z,99958.09
2022-12-29T06:34:16.599Z,99946.31
2022-12-29T06:36:43.204Z,99944.44
2022-12-29T06:39:11.578Z,99933.81
2022-12-29T06:41:38.849Z,99940.22
2022-12-29T06:44:34.488Z,99938.19
2022-12-29T06:47:03.099Z,99936.50
2022-12-29T06:49:29.607Z,99924.88
2022-12-29T06:51:56.216Z,99932.97
2022-12-29T06:54:22.742Z,99930.56
2022-12-29T06:56:49.339Z,99932.72
2022-12-29T06:59:15.814Z,99937.09
2022-12-29T07:01:42.471Z,99932.88
2022-12-29T07:04:09.040Z,99930.31
2022-12-29T07:06:35.649Z,99932.16
2022-12-29T07:09:02.183Z,99934.16
2022-12-29T07:11:28.825Z,99948.66
2022-12-29T07:13:55.426Z,99956.91
2022-12-29T07:16:22.096Z,99949.81
2022-12-29T07:18:48.675Z,99957.06
2022-12-29T07:21:15.298Z,99968.69
2022-12-29T07:23:42.013Z,99979.34
2022-12-29T07:26:11.312Z,99978.34
2022-12-29T07:28:39.055Z,99983.44
2022-12-29T07:31:07.211Z,99987.69
2022-12-29T07:33:34.346Z,99996.47
2022-12-29T07:36:01.123Z,99991.63
2022-12-29T07:38:27.747Z,99989.78
2022-12-29T07:40:58.033Z,99998.72
2022-12-29T07:43:24.624Z,100004.81
2022-12-29T07:46:54.219Z,100001.97
2022-12-29T07:49:03.588Z,100014.47
2022-12-29T07:51:30.174Z,100018.16
2022-12-29T07:53:56.886Z,100016.31
2022-12-29T07:56:23.385Z,100019.31
2022-12-29T07:58:50.200Z,100015.91
2022-12-29T08:01:17.015Z,100007.97
2022-12-29T08:03:44.699Z,100003.56
2022-12-29T08:06:12.439Z,100009.13
2022-12-29T08:08:39.247Z,100008.25
2022-12-29T08:11:07.889Z,100027.16
2022-12-29T08:13:35.010Z,100022.59
2022-12-29T08:16:01.601Z,100022.47
2022-12-29T08:18:28.288Z,100025.00
2022-12-29T08:20:55.887Z,100031.94
2022-12-29T08:23:22.572Z,100028.09
2022-12-29T08:26:01.310Z,100038.75
2022-12-29T08:28:28.466Z,100041.84
2022-12-29T08:31:11.074Z,100030.22
2022-12-29T08:33:37.848Z,100040.84
2022-12-29T08:36:07.139Z,100032.75
2022-12-29T08:38:34.271Z,100039.84
2022-12-29T08:41:03.881Z,100044.94
2022-12-29T08:43:31.584Z,100038.69
2022-12-29T08:45:59.712Z,100044.81
2022-12-29T08:48:26.927Z,100038.41
2022-12-29T08:50:53.743Z,100033.84
2022-12-29T08:53:20.272Z,100043.50
2022-12-29T08:55:47.789Z,100046.06
2022-12-29T08:58:17.481Z,100046.28
2022-12-29T09:00:44.639Z,100039.44
2022-12-29T09:03:12.096Z,100046.25
2022-12-29T09:05:38.754Z,100043.28
2022-12-29T09:08:05.505Z,100040.56
2022-12-29T09:10:33.163Z,100040.41
2022-12-29T09:12:59.729Z,100042.28
2022-12-29T09:15:26.242Z,100055.63
2022-12-29T09:17:53.137Z,100047.53
2022-12-29T09:20:20.684Z,100040.28
2022-12-29T09:22:48.093Z,100045.53
2022-12-29T09:25:15.723Z,100047.53
2022-12-29T09:27:42.500Z,100048.38
2022-12-29T09:30:13.096Z,100050.06
2022-12-29T09:32:44.890Z,100056.16
2022-12-29T09:35:12.823Z,100057.03
2022-12-29T09:37:39.370Z,100059.56
2022-12-29T09:40:07.340Z,100060.56
2022-12-29T09:42:42.018Z,100062.97
2022-12-29T09:45:20.114Z,100079.16
2022-12-29T09:47:47.893Z,100083.56
2022-12-29T09:50:20.243Z,100083.72
2022-12-29T09:52:56.268Z,100089.28
2022-12-29T09:55:26.850Z,100087.56
2022-12-29T09:58:22.296Z,100081.63
2022-12-29T10:00:55.198Z,100098.22
2022-12-29T10:03:25.194Z,100099.22
2022-12-29T10:06:04.678Z,100109.19
2022-12-29T10:08:55.929Z,100116.44
2022-12-29T10:11:47.028Z,100116.44
2022-12-29T10:14:23.763Z,100118.44
2022-12-29T10:17:15.719Z,100124.13
2022-12-29T10:20:11.655Z,100130.53
2022-12-29T10:22:43.947Z,100122.44
2022-12-29T10:25:19.323Z,100139.19
2022-12-29T10:27:48.876Z,100139.19
2022-12-29T10:30:16.813Z,100143.75
2022-12-29T10:33:07.189Z,100151.44
2022-12-29T10:35:41.391Z,100165.22
2022-12-29T10:38:29.824Z,100166.53
2022-12-29T10:41:14.897Z,100169.38
2022-12-29T10:43:54.016Z,100168.66
2022-12-29T10:46:36.456Z,100180.47
2022-12-29T10:49:04.097Z,100192.13
2022-12-29T10:51:36.476Z,100185.00
2022-12-29T10:54:13.977Z,100203.91
2022-12-29T10:56:45.910Z,100201.91
2022-12-29T10:59:28.950Z,100197.50
2022-12-29T11:02:10.764Z,100207.47
2022-12-29T11:04:56.857Z,100209.44
2022-12-29T11:07:27.006Z,100206.19
2022-12-29T11:09:54.914Z,100217.13
2022-12-29T11:12:30.752Z,100218.97
2022-12-29T11:15:09.664Z,100223.69
2022-12-29T11:17:45.778Z,100219.97
2022-12-29T11:20:27.098Z,100232.63
2022-12-29T11:22:53.750Z,100237.72
2022-12-29T11:25:20.315Z,100236.72
2022-12-29T11:28:22.279Z,100243.13
2022-12-29T11:31:00.472Z,100244.84
2022-12-29T11:33:29.895Z,100245.84
2022-12-29T11:36:07.434Z,100255.78
2022-12-29T11:38:39.396Z,100248.66
2022-12-29T11:41:07.866Z,100260.19
2022-12-29T11:43:39.174Z,100253.78
2022-12-29T11:46:07.142Z,100253.63
2022-12-29T11:48:40.800Z,100265.13
2022-12-29T11:51:08.715Z,100258.75
2022-12-29T11:53:47.928Z,100267.97
2022-12-29T11:56:17.604Z,100257.34
2022-12-29T11:58:44.731Z,100268.97
2022-12-29T12:01:15.017Z,100270.84
2022-12-29T12:03:48.979Z,100268.97
2022-12-29T12:06:21.698Z,100263.44
2022-12-29T12:08:55.675Z,100270.53
2022-12-29T12:11:36.753Z,100261.44
2022-12-29T12:14:13.113Z,100272.94
2022-12-29T12:17:05.349Z,100279.06
2022-12-29T12:19:59.386Z,100272.81
2022-12-29T12:22:25.871Z,100277.78
2022-12-29T12:25:00.750Z,100286.56
2022-12-29T12:27:41.129Z,100284.44
2022-12-29T12:30:23.412Z,100285.84
2022-12-29T12:33:25.715Z,100284.72
2022-12-29T12:36:16.326Z,100292.41
2022-12-29T12:39:11.571Z,100275.34
2022-12-29T12:41:56.792Z,100293.25
2022-12-29T12:44:52.514Z,100293.41
2022-12-29T12:47:43.156Z,100297.09
2022-12-29T12:50:28.881Z,100285.31
2022-12-29T12:53:10.944Z,100290.72
2022-12-29T12:56:02.195Z,100305.06
2022-12-29T12:58:46.994Z,100301.38
2022-12-29T13:01:42.798Z,100295.81
2022-12-29T13:04:37.673Z,100304.34
2022-12-29T13:07:37.255Z,100302.34
2022-12-29T13:10:23.411Z,100304.59
2022-12-29T13:13:13.607Z,100294.50
2022-12-29T13:15:58.325Z,100302.59
2022-12-29T13:18:54.335Z,100315.13
2022-12-29T13:21:39.147Z,100303.44
2022-12-29T13:24:41.104Z,100314.13
2022-12-29T13:27:37.745Z,100313.25
2022-12-29T13:30:16.782Z,100314.13
2022-12-29T13:33:05.867Z,100325.78
2022-12-29T13:35:32.356Z,100327.63
2022-12-29T13:38:11.474Z,100318.25
2022-12-29T13:40:42.726Z,100328.63
2022-12-29T13:43:10.280Z,100335.75
2022-12-29T13:45:37.321Z,100340.84
2022-12-29T13:48:16.274Z,100338.03
2022-12-29T13:50:47.562Z,100357.50
2022-12-29T13:53:31.821Z,100359.19
2022-12-29T13:56:14.109Z,100360.34
2022-12-29T13:59:41.584Z,100364.31
2022-12-29T14:02:17.291Z,100369.69
2022-12-29T14:04:59.175Z,100361.03
2022-12-29T14:07:26.484Z,100361.31
2022-12-29T14:09:56.009Z,100359.75
2022-12-29T14:12:25.555Z,100368.13
2022-12-29T14:14:52.355Z,100370.25
2022-12-29T14:17:22.114Z,100355.91
2022-12-29T14:19:54.507Z,100366.00
2022-12-29T14:22:32.909Z,100367.13
2022-12-29T14:25:00.192Z,100373.66
2022-12-29T14:27:45.124Z,100371.09
2022-12-29T14:31:06.836Z,100373.53
2022-12-29T14:33:35.496Z,100372.53
2022-12-29T14:36:21.997Z,100367.28
2022-12-29T14:38:48.943Z,100369.97
2022-12-29T14:41:38.770Z,100367.53
2022-12-29T14:44:08.012Z,100372.81
2022-12-29T14:46:49.882Z,100377.47
2022-12-29T14:49:24.005Z,100378.63
2022-12-29T14:51:53.724Z,100379.88
2022-12-29T14:54:38.378Z,100377.59
2022-12-29T14:57:14.082Z,100382.00
2022-12-29T14:59:40.800Z,100387.53
2022-12-29T15:02:19.756Z,100389.53
2022-12-29T15:04:48.450Z,100396.75
2022-12-29T15:07:16.384Z,100389.53
2022-12-29T15:09:50.530Z,100403.00
2022-12-29T15:12:37.883Z,100399.47
2022-12-29T15:15:23.099Z,100402.25
2022-12-29T15:17:49.899Z,100403.13
2022-12-29T15:20:31.432Z,100408.50
2022-12-29T15:23:09.873Z,100398.56
2022-12-29T15:25:37.134Z,100400.19
2022-12-29T15:28:07.581Z,100409.13
2022-12-29T15:30:34.436Z,100408.00
2022-12-29T15:33:01.058Z,100412.41
2022-12-29T15:35:35.223Z,100412.97
2022-12-29T15:38:14.702Z,100413.97
2022-12-29T15:40:44.372Z,100418.66
2022-12-29T15:43:16.981Z,100410.56
2022-12-29T15:45:43.950Z,100415.94
2022-12-29T15:48:22.423Z,100428.44
2022-12-29T15:50:49.655Z,100434.81
2022-12-29T15:53:29.360Z,100423.47
2022-12-29T15:56:09.510Z,100427.28
2022-12-29T15:58:48.600Z,100431.94
2022-12-29T16:01:35.287Z,100423.00
2022-12-29T16:04:07.618Z,100417.88
2022-12-29T16:06:35.317Z,100413.88
2022-12-29T16:09:16.117Z,100425.78
2022-12-29T16:11:54.181Z,100425.94
2022-12-29T16:14:29.395Z,100436.72
2022-12-29T16:17:00.205Z,100436.97
2022-12-29T16:19:37.630Z,100440.81
2022-12-29T16:22:12.045Z,100446.44
2022-12-29T16:24:41.033Z,100437.75
2022-12-29T16:27:15.115Z,100437.03
2022-12-29T16:29:41.808Z,100453.34
2022-12-29T16:32:30.490Z,100459.16
2022-12-29T16:35:14.766Z,100461.97
2022-12-29T16:37:41.700Z,100457.84
2022-12-29T16:40:26.937Z,100465.34
2022-12-29T16:42:58.814Z,100478.22
2022-12-29T16:45:47.261Z,100474.22
2022-12-29T16:48:13.889Z,100464.44
2022-12-29T16:50:43.317Z,100478.19
2022-12-29T16:53:24.656Z,100480.16
2022-12-29T16:55:53.652Z,100483.09
2022-12-29T16:58:24.598Z,100489.47
2022-12-29T17:00:55.570Z,100496.13
2022-12-29T17:03:22.882Z,100500.06
2022-12-29T17:05:54.163Z,100501.19
2022-12-29T17:08:26.554Z,100499.44
2022-12-29T17:11:15.027Z,100506.66
2022-12-29T17:13:42.151Z,100504.97
2022-12-29T17:16:10.879Z,100504.38
2022-12-29T17:18:37.721Z,100506.47
2022-12-29T17:21:04.351Z,100508.44
2022-12-29T17:23:33.180Z,100506.00
2022-12-29T17:26:00.217Z,100508.94
2022-12-29T17:28:30.986Z,100510.06
2022-12-29T17:31:07.465Z,100513.16
2022-12-29T17:33:40.007Z,100510.84
2022-12-29T17:36:06.783Z,100521.00
2022-12-29T17:38:37.473Z,100525.06
2022-12-29T17:41:04.268Z,100519.81
2022-12-29T17:43:36.716Z,100532.53
2022-12-29T17:46:07.271Z,100538.91
2022-12-29T17:48:34.048Z,100540.03
2022-12-29T17:51:00.970Z,100543.81
2022-12-29T17:53:29.850Z,100543.22
2022-12-29T17:55:56.643Z,100548.72
2022-12-29T17:58:25.496Z,100550.56
2022-12-29T18:00:57.812Z,100561.47
2022-12-29T18:03:31.015Z,100562.69
2022-12-29T18:05:58.025Z,100570.03
2022-12-29T18:08:25.301Z,100568.69
2022-12-29T18:10:54.768Z,100576.16
2022-12-29T18:13:43.616Z,100577.28
2022-12-29T18:16:13.830Z,100575.56
2022-12-29T18:18:40.552Z,100574.91
2022-12-29T18:21:07.493Z,100586.06
2022-12-29T18:23:37.446Z,100588.13
2022-12-29T18:26:15.560Z,100587.50
2022-12-29T18:28:43.295Z,100585.78
2022-12-29T18:31:35.365Z,100577.84
2022-12-29T18:34:05.174Z,100582.59
2022-12-29T18:36:31.704Z,100585.41
2022-12-29T18:38:58.318Z,100594.69
2022-12-29T18:41:32.330Z,100594.09
2022-12-29T18:44:00.141Z,100594.09
2022-12-29T18:46:27.396Z,100594.94
2022-12-29T18:48:54.658Z,100597.75
2022-12-29T18:51:25.160Z,100597.88
2022-12-29T18:53:54.093Z,100601.66
2022-12-29T18:56:22.500Z,100597.16
2022-12-29T18:58:49.851Z,100608.75
2022-12-29T19:01:24.420Z,100611.69
2022-12-29T19:03:51.908Z,100604.34
2022-12-29T19:06:19.394Z,100613.28
2022-12-29T19:08:45.919Z,100604.25
2022-12-29T19:11:12.637Z,100607.91
2022-12-29T19:13:40.407Z,100611.56
2022-12-29T19:16:08.982Z,100615.34
2022-12-29T19:18:44.531Z,100617.19
2022-12-29T19:21:14.037Z,100614.75
2022-12-29T19:23:40.575Z,100613.75
2022-12-29T19:26:07.170Z,100623.91
2022-12-29T19:28:33.687Z,100626.72
2022-12-29T19:31:02.667Z,100624.88
2022-12-29T19:33:29.662Z,100631.13
2022-12-29T19:36:01.458Z,100632.09
2022-12-29T19:38:28.754Z,100636.50
2022-12-29T19:40:55.408Z,100642.84
2022-12-29T19:43:22.019Z,100646.28
2022-12-29T19:45:48.533Z,100646.28
2022-12-29T19:48:17.377Z,100647.13
2022-12-29T19:50:44.788Z,100648.09
2022-12-29T19:53:12.403Z,100655.31
2022-12-29T19:55:46.610Z,100650.91
2022-12-29T19:58:14.710Z,100658.97
2022-12-29T20:00:43.645Z,100657.28
2022-12-29T20:03:10.719Z,100661.66
2022-12-29T20:05:38.664Z,100658.13
2022-12-29T20:08:05.287Z,100656.41
2022-12-29T20:10:32.025Z,100661.91
2022-12-29T20:12:58.557Z,100663.88
2022-12-29T20:15:25.113Z,100673.88
2022-12-29T20:20:38.364Z,100678.53
2022-12-29T20:23:04.818Z,100673.13
2022-12-29T20:25:47.644Z,100677.66
2022-12-29T20:28:16.012Z,100683.28
2022-12-29T20:30:43.674Z,100678.00
2022-12-29T20:33:10.651Z,100677.16
2022-12-29T20:35:37.608Z,100685.34
2022-12-29T20:38:05.127Z,100693.28
2022-12-29T20:40:32.155Z,100690.72
2022-12-29T20:42:58.778Z,100698.78
2022-12-29T20:45:25.586Z,100697.94
2022-12-29T20:47:52.439Z,100687.41
2022-12-29T20:50:19.124Z,100689.25
2022-12-29T20:52:46.815Z,100684.84
2022-12-29T20:55:13.563Z,100680.44
2022-12-29T20:58:13.997Z,100681.41
2022-12-29T21:00:30.242Z,100688.50
2022-12-29T21:02:58.009Z,100688.63
2022-12-29T21:05:25.910Z,100689.59
2022-12-29T21:07:53.895Z,100695.09
2022-12-29T21:10:21.249Z,100685.38
2022-12-29T21:12:48.534Z,100697.97
2022-12-29T21:15:15.777Z,100699.91
2022-12-29T21:17:43.622Z,100701.75
2022-12-29T21:20:19.553Z,100697.34
2022-12-29T21:22:47.609Z,100696.50
2022-12-29T21:25:14.479Z,100701.13
2022-12-29T21:27:44.200Z,100703.81
2022-12-29T21:30:11.887Z,100711.13
2022-12-29T21:32:39.154Z,100704.03
2022-12-29T21:35:06.648Z,100709.41
2022-12-29T21:37:33.250Z,100704.16
2022-12-29T21:39:59.796Z,100716.00
2022-12-29T21:42:28.831Z,100733.94
2022-12-29T21:45:19.928Z,100733.19
2022-12-29T21:48:05.587Z,100736.63
2022-12-29T21:50:32.135Z,100730.63
2022-12-29T21:52:58.692Z,100742.34
2022-12-29T21:55:25.216Z,100731.72
2022-12-29T21:58:10.080Z,100742.34
2022-12-29T22:00:54.898Z,100748.59
2022-12-29T22:03:39.922Z,100749.56
2022-12-29T22:06:29.746Z,100746.13
2022-12-29T22:09:14.897Z,100755.16
2022-12-29T22:12:00.130Z,100760.53
2022-12-29T22:14:26.702Z,100760.53
2022-12-29T22:16:53.180Z,100774.06
2022-12-29T22:19:19.685Z,100780.41
2022-12-29T22:21:46.182Z,100778.81
2022-12-29T22:24:12.813Z,100787.84
2022-12-29T22:26:39.346Z,100800.41
2022-12-29T22:29:05.841Z,100790.88
2022-12-29T22:31:33.169Z,100799.78
2022-12-29T22:34:02.162Z,100806.13
2022-12-29T22:36:29.966Z,100801.50
2022-12-29T22:38:56.713Z,100799.56
2022-12-29T22:41:23.538Z,100801.41
2022-12-29T22:43:50.114Z,100807.63
2022-12-29T22:46:16.721Z,100810.31
2022-12-29T22:48:43.306Z,100812.03
2022-12-29T22:51:09.873Z,100808.47
2022-12-29T22:53:36.422Z,100803.97
2022-12-29T22:56:08.882Z,100808.47
2022-12-29T22:58:39.187Z,100812.13
2022-12-29T23:01:05.816Z,100809.44
2022-12-29T23:03:32.507Z,100820.31
2022-12-29T23:06:01.818Z,100822.25
2022-12-29T23:08:31.439Z,100825.91
2022-12-29T23:10:58.125Z,100831.38
2022-12-29T23:13:24.708Z,100831.38
2022-12-29T23:15:51.345Z,100848.47
2022-12-29T23:18:17.959Z,100851.06
2022-12-29T23:20:45.311Z,100858.38
2022-12-29T23:23:11.979Z,100862.00
2022-12-29T23:25:39.118Z,100871.91
2022-12-29T23:28:07.878Z,100874.69
2022-12-29T23:30:35.136Z,100870.41
2022-12-29T23:33:01.708Z,100870.50
2022-12-29T23:35:28.216Z,100871.38
2022-12-29T23:37:54.714Z,100876.84
2022-12-29T23:40:21.246Z,100873.31
2022-12-29T23:42:47.762Z,100873.31
2022-12-29T23:45:14.384Z,100879.66
2022-12-29T23:47:40.931Z,100885.03
2022-12-29T23:50:08.691Z,100874.38
2022-12-29T23:52:35.322Z,100876.31
2022-12-29T23:55:02.096Z,100875.47
2022-12-29T23:57:28.606Z,100879.22
2022-12-29T23:59:55.157Z,100887.38
